createdAt,value
2022-09-12T00:01:40.154Z,12.72
2022-09-12T00:04:06.867Z,12.66
2022-09-12T00:06:35.702Z,12.62
2022-09-12T00:09:06.698Z,12.63
2022-09-12T00:11:36.396Z,12.64
2022-09-12T00:14:04.390Z,12.66
2022-09-12T00:16:33.172Z,12.75
2022-09-12T00:19:00.442Z,12.72
2022-09-12T00:21:28.013Z,12.69
2022-09-12T00:23:54.912Z,12.65
2022-09-12T00:26:22.128Z,12.61
2022-09-12T00:28:49.029Z,12.67
2022-09-12T00:31:24.811Z,12.64
2022-09-12T00:33:52.738Z,12.53
2022-09-12T00:36:22.141Z,12.39
2022-09-12T00:38:50.470Z,12.28
2022-09-12T00:41:20.173Z,12.37
2022-09-12T00:44:19.926Z,12.45
2022-09-12T00:47:01.122Z,12.47
2022-09-12T00:49:44.620Z,12.45
2022-09-12T00:52:33.504Z,12.31
2022-09-12T00:54:59.964Z,12.23
2022-09-12T00:57:39.394Z,12.23
2022-09-12T01:00:16.222Z,12.13
2022-09-12T01:02:49.236Z,12.15
2022-09-12T01:05:16.327Z,12.21
2022-09-12T01:07:44.671Z,12.25
2022-09-12T01:10:11.582Z,12.24
2022-09-12T01:12:40.915Z,12.24
2022-09-12T01:15:08.441Z,12.25
2022-09-12T01:17:44.294Z,12.23
2022-09-12T01:20:27.135Z,12.21
2022-09-12T01:23:10.821Z,12.05
2022-09-12T01:25:39.925Z,11.99
2022-09-12T01:28:18.535Z,12.02
2022-09-12T01:30:52.224Z,12.18
2022-09-12T01:33:53.613Z,12.30
2022-09-12T01:37:00.196Z,12.31
2022-09-12T01:39:52.510Z,12.31
2022-09-12T01:42:31.301Z,12.24
2022-09-12T01:45:16.637Z,12.18
2022-09-12T01:48:04.453Z,12.21
2022-09-12T01:50:35.784Z,12.16
2022-09-12T01:53:12.932Z,12.20
2022-09-12T01:55:57.079Z,12.17
2022-09-12T01:58:38.285Z,12.14
2022-09-12T02:01:11.151Z,12.20
2022-09-12T02:03:50.118Z,12.29
2022-09-12T02:06:30.917Z,12.33
2022-09-12T02:09:26.512Z,12.30
2022-09-12T02:11:59.023Z,12.34
2022-09-12T02:14:33.915Z,12.26
2022-09-12T02:17:27.156Z,12.14
2022-09-12T02:20:02.502Z,12.01
2022-09-12T02:22:31.685Z,11.77
2022-09-12T02:25:01.104Z,11.65
2022-09-12T02:27:37.977Z,11.65
2022-09-12T02:30:06.573Z,11.67
2022-09-12T02:33:02.119Z,11.68
2022-09-12T02:35:48.626Z,11.67
2022-09-12T02:38:23.894Z,11.59
2022-09-12T02:40:50.664Z,11.52
2022-09-12T02:43:17.192Z,11.55
2022-09-12T02:45:44.117Z,11.60
2022-09-12T02:48:31.761Z,11.64
2022-09-12T02:50:58.658Z,11.62
2022-09-12T02:53:27.410Z,11.63
2022-09-12T02:55:54.507Z,11.66
2022-09-12T02:58:25.406Z,11.58
2022-09-12T03:01:02.652Z,11.53
2022-09-12T03:03:53.864Z,11.54
2022-09-12T03:06:37.414Z,11.54
2022-09-12T03:09:24.095Z,11.58
2022-09-12T03:12:08.774Z,11.66
2022-09-12T03:14:44.204Z,11.55
2022-09-12T03:17:25.806Z,11.31
2022-09-12T03:20:03.388Z,11.27
2022-09-12T03:22:39.148Z,11.35
2022-09-12T03:25:23.690Z,11.43
2022-09-12T03:28:08.192Z,11.44
2022-09-12T03:30:39.998Z,11.43
2022-09-12T03:33:06.654Z,11.46
2022-09-12T03:35:33.261Z,11.50
2022-09-12T03:37:59.759Z,11.47
2022-09-12T03:40:26.407Z,11.53
2022-09-12T03:42:53.196Z,11.57
2022-09-12T03:45:19.778Z,11.59
2022-09-12T03:47:46.317Z,11.67
2022-09-12T03:50:12.822Z,11.59
2022-09-12T03:52:39.312Z,11.55
2022-09-12T03:55:06.499Z,11.50
2022-09-12T03:57:32.993Z,11.49
2022-09-12T03:59:59.525Z,11.53
2022-09-12T04:02:26.035Z,11.58
2022-09-12T04:04:52.782Z,11.62
2022-09-12T04:07:19.462Z,11.69
2022-09-12T04:09:46.093Z,11.72
2022-09-12T04:12:14.063Z,11.66
2022-09-12T04:14:40.729Z,11.63
2022-09-12T04:17:07.658Z,11.59
2022-09-12T04:19:34.250Z,11.51
2022-09-12T04:22:00.752Z,11.49
2022-09-12T04:24:27.330Z,11.43
2022-09-12T04:26:53.909Z,11.41
2022-09-12T04:29:20.510Z,11.32
2022-09-12T04:31:47.082Z,11.27
2022-09-12T04:34:13.686Z,11.14
2022-09-12T04:36:40.398Z,11.12
2022-09-12T04:39:07.815Z,11.07
2022-09-12T04:41:36.849Z,11.15
2022-09-12T04:44:07.625Z,11.22
2022-09-12T04:46:38.638Z,11.33
2022-09-12T04:49:05.626Z,11.39
2022-09-12T04:51:35.111Z,11.43
2022-09-12T04:54:04.516Z,11.52
2022-09-12T04:56:31.364Z,11.56
2022-09-12T04:59:00.520Z,11.56
2022-09-12T05:01:28.321Z,11.64
2022-09-12T05:03:56.238Z,11.71
2022-09-12T05:06:24.929Z,11.70
2022-09-12T05:08:52.781Z,11.71
2022-09-12T05:11:28.242Z,11.70
2022-09-12T05:13:59.806Z,11.75
2022-09-12T05:16:28.361Z,11.76
2022-09-12T05:18:57.029Z,11.73
2022-09-12T05:21:23.881Z,11.69
2022-09-12T05:23:55.064Z,11.64
2022-09-12T05:26:22.915Z,11.71
2022-09-12T05:28:51.048Z,11.73
2022-09-12T05:31:20.547Z,11.78
2022-09-12T05:33:49.061Z,11.84
2022-09-12T05:36:21.712Z,11.97
2022-09-12T05:38:48.313Z,12.05
2022-09-12T05:41:20.831Z,12.28
2022-09-12T05:43:53.817Z,12.39
2022-09-12T05:46:22.093Z,12.38
2022-09-12T05:48:55.167Z,12.37
2022-09-12T05:51:26.701Z,12.29
2022-09-12T05:53:58.405Z,12.34
2022-09-12T05:56:27.982Z,12.62
2022-09-12T05:58:57.382Z,12.86
2022-09-12T06:01:24.459Z,13.12
2022-09-12T06:03:54.257Z,13.50
2022-09-12T06:06:23.239Z,13.63
2022-09-12T06:08:52.068Z,13.82
2022-09-12T06:11:23.420Z,14.21
2022-09-12T06:13:51.106Z,14.54
2022-09-12T06:16:22.994Z,14.19
2022-09-12T06:18:54.790Z,14.77
2022-09-12T06:21:22.465Z,15.06
2022-09-12T06:23:49.805Z,15.26
2022-09-12T06:26:18.686Z,15.81
2022-09-12T06:28:45.480Z,15.88
2022-09-12T06:31:15.169Z,16.10
2022-09-12T06:33:44.477Z,16.14
2022-09-12T06:36:16.185Z,15.98
2022-09-12T06:38:43.212Z,15.44
2022-09-12T06:41:12.325Z,14.93
2022-09-12T06:43:40.631Z,14.96
2022-09-12T06:46:07.956Z,14.72
2022-09-12T06:48:41.628Z,14.81
2022-09-12T06:51:17.672Z,14.96
2022-09-12T06:53:45.261Z,14.98
2022-09-12T06:56:14.610Z,15.10
2022-09-12T06:58:42.766Z,14.96
2022-09-12T07:01:16.654Z,15.09
2022-09-12T07:03:47.706Z,15.24
2022-09-12T07:06:15.998Z,15.22
2022-09-12T07:08:42.890Z,15.39
2022-09-12T07:11:22.666Z,15.50
2022-09-12T07:13:51.743Z,15.67
2022-09-12T07:16:19.984Z,15.74
2022-09-12T07:18:51.969Z,15.64
2022-09-12T07:21:19.383Z,15.58
2022-09-12T07:23:46.341Z,15.58
2022-09-12T07:26:14.345Z,15.73
2022-09-12T07:28:41.439Z,15.66
2022-09-12T07:31:16.305Z,15.77
2022-09-12T07:33:43.962Z,15.82
2022-09-12T07:36:16.311Z,15.79
2022-09-12T07:38:44.075Z,15.85
2022-09-12T07:41:32.019Z,15.91
2022-09-12T07:44:00.705Z,15.68
2022-09-12T07:46:29.587Z,15.87
2022-09-12T07:48:58.211Z,15.92
2022-09-12T07:51:25.989Z,16.01
2022-09-12T07:53:52.820Z,15.93
2022-09-12T07:56:20.068Z,16.04
2022-09-12T07:58:47.368Z,15.93
2022-09-12T08:01:16.558Z,16.06
2022-09-12T08:03:44.525Z,16.12
2022-09-12T08:06:14.316Z,16.24
2022-09-12T08:08:41.356Z,16.16
2022-09-12T08:11:10.957Z,16.25
2022-09-12T08:13:39.143Z,16.31
2022-09-12T08:16:13.459Z,16.35
2022-09-12T08:18:41.026Z,16.46
2022-09-12T08:21:12.314Z,16.51
2022-09-12T08:23:38.975Z,16.42
2022-09-12T08:26:06.644Z,16.40
2022-09-12T08:28:35.662Z,16.68
2022-09-12T08:31:06.543Z,16.77
2022-09-12T08:33:33.728Z,16.80
2022-09-12T08:36:07.398Z,16.80
2022-09-12T08:38:38.659Z,16.79
2022-09-12T08:41:30.294Z,16.77
2022-09-12T08:44:18.363Z,16.83
2022-09-12T08:47:09.177Z,16.93
2022-09-12T08:49:39.594Z,17.06
2022-09-12T08:52:14.547Z,17.24
2022-09-12T08:54:44.975Z,17.24
2022-09-12T08:57:11.851Z,17.32
2022-09-12T08:59:41.305Z,17.46
2022-09-12T09:02:42.250Z,17.49
2022-09-12T09:05:12.041Z,17.60
2022-09-12T09:07:54.367Z,17.58
2022-09-12T09:10:51.959Z,17.78
2022-09-12T09:13:50.861Z,17.79
2022-09-12T09:16:31.990Z,18.03
2022-09-12T09:19:03.000Z,17.89
2022-09-12T09:21:37.535Z,17.90
2022-09-12T09:24:07.732Z,17.87
2022-09-12T09:26:52.009Z,17.73
2022-09-12T09:29:24.465Z,18.06
2022-09-12T09:32:00.165Z,18.11
2022-09-12T09:34:31.596Z,18.13
2022-09-12T09:37:10.450Z,17.90
2022-09-12T09:40:13.623Z,18.14
2022-09-12T09:42:57.850Z,18.31
2022-09-12T09:45:27.697Z,18.33
2022-09-12T09:47:57.281Z,18.29
2022-09-12T09:50:24.726Z,18.33
2022-09-12T09:52:54.076Z,18.51
2022-09-12T09:55:37.836Z,18.48
2022-09-12T09:58:04.658Z,18.46
2022-09-12T10:00:34.083Z,18.47
2022-09-12T10:03:13.585Z,18.61
2022-09-12T10:05:57.194Z,18.64
2022-09-12T10:08:33.004Z,18.72
2022-09-12T10:11:04.652Z,18.75
2022-09-12T10:13:38.113Z,18.79
2022-09-12T10:16:27.831Z,18.61
2022-09-12T10:18:57.354Z,18.91
2022-09-12T10:21:52.983Z,19.05
2022-09-12T10:24:30.837Z,19.11
2022-09-12T10:27:14.079Z,19.16
2022-09-12T10:29:52.667Z,19.20
2022-09-12T10:32:30.393Z,19.48
2022-09-12T10:35:05.877Z,19.42
2022-09-12T10:37:35.489Z,19.51
2022-09-12T10:40:04.613Z,19.42
2022-09-12T10:42:51.387Z,19.28
2022-09-12T10:45:24.763Z,19.47
2022-09-12T10:47:58.192Z,19.61
2022-09-12T10:50:36.366Z,19.46
2022-09-12T10:53:21.208Z,19.66
2022-09-12T10:56:06.854Z,19.75
2022-09-12T10:58:54.557Z,19.87
2022-09-12T11:01:36.042Z,20.04
2022-09-12T11:04:20.158Z,20.11
2022-09-12T11:06:52.695Z,20.11
2022-09-12T11:09:35.882Z,20.06
2022-09-12T11:12:16.135Z,20.12
2022-09-12T11:15:09.958Z,20.04
2022-09-12T11:18:14.489Z,20.09
2022-09-12T11:20:46.957Z,20.25
2022-09-12T11:23:51.029Z,20.36
2022-09-12T11:26:45.048Z,20.35
2022-09-12T11:29:29.914Z,20.40
2022-09-12T11:32:02.214Z,20.47
2022-09-12T11:34:49.731Z,20.50
2022-09-12T11:37:31.252Z,20.45
2022-09-12T11:40:05.742Z,20.51
2022-09-12T11:42:38.820Z,20.47
2022-09-12T11:45:17.470Z,20.52
2022-09-12T11:47:53.166Z,20.70
2022-09-12T11:50:29.747Z,20.74
2022-09-12T11:53:04.464Z,20.81
2022-09-12T11:55:44.476Z,20.90
2022-09-12T11:58:11.796Z,20.99
2022-09-12T12:00:44.410Z,21.14
2022-09-12T12:03:37.188Z,21.20
2022-09-12T12:06:14.881Z,21.31
2022-09-12T12:08:43.382Z,21.32
2022-09-12T12:11:12.248Z,21.01
2022-09-12T12:13:56.671Z,21.12
2022-09-12T12:16:29.861Z,21.10
2022-09-12T12:18:59.212Z,20.96
2022-09-12T12:21:28.469Z,21.05
2022-09-12T12:24:10.148Z,20.80
2022-09-12T12:26:39.826Z,20.99
2022-09-12T12:29:35.006Z,21.07
2022-09-12T12:32:04.138Z,21.31
2022-09-12T12:34:41.727Z,21.19
2022-09-12T12:37:23.019Z,21.17
2022-09-12T12:39:50.919Z,21.11
2022-09-12T12:42:35.878Z,21.02
2022-09-12T12:45:25.439Z,21.26
2022-09-12T12:48:14.953Z,21.53
2022-09-12T12:50:41.746Z,21.50
2022-09-12T12:53:27.912Z,21.65
2022-09-12T12:55:56.546Z,21.61
2022-09-12T12:58:39.524Z,21.51
2022-09-12T13:01:10.953Z,21.34
2022-09-12T13:03:41.437Z,21.43
2022-09-12T13:06:20.372Z,21.29
2022-09-12T13:09:00.152Z,21.66
2022-09-12T13:11:34.080Z,21.74
2022-09-12T13:14:07.116Z,21.72
2022-09-12T13:16:35.581Z,21.67
2022-09-12T13:19:06.415Z,21.84
2022-09-12T13:21:33.000Z,21.91
2022-09-12T13:24:22.454Z,21.98
2022-09-12T13:26:49.506Z,22.01
2022-09-12T13:29:24.010Z,21.91
2022-09-12T13:31:57.431Z,21.63
2022-09-12T13:34:49.577Z,21.32
2022-09-12T13:37:33.992Z,21.40
2022-09-12T13:40:07.477Z,21.53
2022-09-12T13:42:42.939Z,21.71
2022-09-12T13:45:35.192Z,21.69
2022-09-12T13:48:03.762Z,21.78
2022-09-12T13:50:57.382Z,21.94
2022-09-12T13:53:26.906Z,22.08
2022-09-12T13:55:58.039Z,22.33
2022-09-12T13:58:35.194Z,22.52
2022-09-12T14:01:13.500Z,22.48
2022-09-12T14:04:00.161Z,22.56
2022-09-12T14:06:27.799Z,22.32
2022-09-12T14:09:01.305Z,22.19
2022-09-12T14:11:30.006Z,22.38
2022-09-12T14:13:57.452Z,22.51
2022-09-12T14:16:27.326Z,22.62
2022-09-12T14:18:54.334Z,22.72
2022-09-12T14:21:34.687Z,22.81
2022-09-12T14:24:04.755Z,22.75
2022-09-12T14:26:35.629Z,22.69
2022-09-12T14:29:06.047Z,22.65
2022-09-12T14:31:37.987Z,22.69
2022-09-12T14:34:14.984Z,22.66
2022-09-12T14:36:47.503Z,22.80
2022-09-12T14:39:19.801Z,22.70
2022-09-12T14:41:46.618Z,22.85
2022-09-12T14:44:33.156Z,22.65
2022-09-12T14:47:12.890Z,22.73
2022-09-12T14:49:40.186Z,22.76
2022-09-12T14:52:21.291Z,22.74
2022-09-12T14:54:59.261Z,22.80
2022-09-12T14:57:39.355Z,22.78
2022-09-12T15:00:11.771Z,22.87
2022-09-12T15:02:39.514Z,22.88
2022-09-12T15:05:09.098Z,22.89
2022-09-12T15:07:55.478Z,22.63
2022-09-12T15:10:25.506Z,22.63
2022-09-12T15:13:28.557Z,22.48
2022-09-12T15:15:59.378Z,22.57
2022-09-12T15:18:28.961Z,22.37
2022-09-12T15:21:01.231Z,22.42
2022-09-12T15:23:52.484Z,21.98
2022-09-12T15:26:22.566Z,22.05
2022-09-12T15:28:50.316Z,22.32
2022-09-12T15:31:31.220Z,22.38
2022-09-12T15:34:00.103Z,22.44
2022-09-12T15:36:28.894Z,22.45
2022-09-12T15:38:56.077Z,22.45
2022-09-12T15:41:33.963Z,22.49
2022-09-12T15:44:01.160Z,22.49
2022-09-12T15:46:27.724Z,22.44
2022-09-12T15:48:54.319Z,22.29
2022-09-12T15:51:22.153Z,22.13
2022-09-12T15:53:50.324Z,22.04
2022-09-12T15:56:18.811Z,22.02
2022-09-12T15:58:57.799Z,22.06
2022-09-12T16:01:26.589Z,22.09
2022-09-12T16:03:53.265Z,22.00
2022-09-12T16:06:19.814Z,21.99
2022-09-12T16:08:46.361Z,21.89
2022-09-12T16:11:26.886Z,21.79
2022-09-12T16:13:54.426Z,21.79
2022-09-12T16:16:21.416Z,21.84
2022-09-12T16:18:48.063Z,21.77
2022-09-12T16:21:15.723Z,21.75
2022-09-12T16:23:48.449Z,21.67
2022-09-12T16:26:15.963Z,21.54
2022-09-12T16:28:43.073Z,21.59
2022-09-12T16:31:13.264Z,21.44
2022-09-12T16:33:40.556Z,21.15
2022-09-12T16:36:09.706Z,21.27
2022-09-12T16:38:59.018Z,21.27
2022-09-12T16:41:26.432Z,21.31
2022-09-12T16:43:53.847Z,21.17
2022-09-12T16:46:22.853Z,21.05
2022-09-12T16:48:52.652Z,20.98
2022-09-12T16:51:28.507Z,20.76
2022-09-12T16:53:55.970Z,20.62
2022-09-12T16:56:23.620Z,20.60
2022-09-12T16:58:50.695Z,20.51
2022-09-12T17:01:26.452Z,20.40
2022-09-12T17:03:57.793Z,20.34
2022-09-12T17:06:25.561Z,20.24
2022-09-12T17:08:54.656Z,20.17
2022-09-12T17:11:27.015Z,20.02
2022-09-12T17:14:05.326Z,19.91
2022-09-12T17:16:38.287Z,19.77
2022-09-12T17:19:06.224Z,19.70
2022-09-12T17:21:33.426Z,19.63
2022-09-12T17:24:00.065Z,19.57
2022-09-12T17:26:26.942Z,19.50
2022-09-12T17:28:53.493Z,19.42
2022-09-12T17:31:20.281Z,19.32
2022-09-12T17:33:47.191Z,19.22
2022-09-12T17:36:16.668Z,19.09
2022-09-12T17:38:45.646Z,18.96
2022-09-12T17:41:18.876Z,18.86
2022-09-12T17:44:07.629Z,18.74
2022-09-12T17:46:38.699Z,18.65
2022-09-12T17:49:10.851Z,18.58
2022-09-12T17:51:37.514Z,18.50
2022-09-12T17:54:11.839Z,18.46
2022-09-12T17:56:39.516Z,18.42
2022-09-12T17:59:08.091Z,18.37
2022-09-12T18:01:53.638Z,18.31
2022-09-12T18:04:20.381Z,18.21
2022-09-12T18:06:50.500Z,18.16
2022-09-12T18:09:20.101Z,18.19
2022-09-12T18:11:48.070Z,18.19
2022-09-12T18:14:15.543Z,18.19
2022-09-12T18:16:42.994Z,18.14
2022-09-12T18:19:10.937Z,18.02
2022-09-12T18:21:37.634Z,17.90
2022-09-12T18:24:04.481Z,17.82
2022-09-12T18:26:31.985Z,17.78
2022-09-12T18:28:59.366Z,17.71
2022-09-12T18:31:31.747Z,17.67
2022-09-12T18:34:00.350Z,17.63
2022-09-12T18:36:27.238Z,17.56
2022-09-12T18:38:54.074Z,17.53
2022-09-12T18:41:24.873Z,17.51
2022-09-12T18:43:56.142Z,17.50
2022-09-12T18:46:23.566Z,17.52
2022-09-12T18:48:50.659Z,17.55
2022-09-12T18:51:21.215Z,17.61
2022-09-12T18:53:56.090Z,17.64
2022-09-12T18:56:24.432Z,17.66
2022-09-12T18:58:53.820Z,17.71
2022-09-12T19:01:26.726Z,17.81
2022-09-12T19:03:54.891Z,17.86
2022-09-12T19:06:24.214Z,17.92
2022-09-12T19:08:52.388Z,17.96
2022-09-12T19:11:19.926Z,18.00
2022-09-12T19:13:48.085Z,18.05
2022-09-12T19:16:18.779Z,18.11
2022-09-12T19:18:48.042Z,18.13
2022-09-12T19:21:18.469Z,18.17
2022-09-12T19:23:45.331Z,18.14
2022-09-12T19:26:13.851Z,18.14
2022-09-12T19:28:41.233Z,18.18
2022-09-12T19:31:10.587Z,18.16
2022-09-12T19:33:37.934Z,18.13
2022-09-12T19:36:13.897Z,18.08
2022-09-12T19:38:53.302Z,18.04
2022-09-12T19:41:20.407Z,18.01
2022-09-12T19:43:46.969Z,17.96
2022-09-12T19:46:24.043Z,17.88
2022-09-12T19:48:51.752Z,17.83
2022-09-12T19:51:19.733Z,17.75
2022-09-12T19:53:47.087Z,17.67
2022-09-12T19:56:14.982Z,17.61
2022-09-12T19:58:44.307Z,17.60
2022-09-12T20:01:19.945Z,17.57
2022-09-12T20:03:47.094Z,17.52
2022-09-12T20:06:16.691Z,17.45
2022-09-12T20:08:44.158Z,17.41
2022-09-12T20:11:13.225Z,17.37
2022-09-12T20:13:41.037Z,17.35
2022-09-12T20:16:29.975Z,17.35
2022-09-12T20:19:06.072Z,17.41
2022-09-12T20:21:34.296Z,17.42
2022-09-12T20:24:12.178Z,17.44
2022-09-12T20:26:39.099Z,17.44
2022-09-12T20:29:07.017Z,17.43
2022-09-12T20:31:34.706Z,17.44
2022-09-12T20:34:01.675Z,17.47
2022-09-12T20:36:28.366Z,17.47
2022-09-12T20:38:57.523Z,17.46
2022-09-12T20:41:25.606Z,17.39
2022-09-12T20:43:53.570Z,17.36
2022-09-12T20:46:22.195Z,17.33
2022-09-12T20:48:50.009Z,17.28
2022-09-12T20:51:17.154Z,17.24
2022-09-12T20:53:43.713Z,17.18
2022-09-12T20:56:10.318Z,17.14
2022-09-12T20:58:41.674Z,17.12
2022-09-12T21:01:11.587Z,17.11
2022-09-12T21:03:42.820Z,17.09
2022-09-12T21:06:12.513Z,17.02
2022-09-12T21:08:39.310Z,17.00
2022-09-12T21:11:06.963Z,16.97
2022-09-12T21:13:33.466Z,16.97
2022-09-12T21:16:04.963Z,16.98
2022-09-12T21:18:32.871Z,17.02
2022-09-12T21:20:59.693Z,17.04
2022-09-12T21:23:27.490Z,17.05
2022-09-12T21:25:54.647Z,17.02
2022-09-12T21:28:21.846Z,17.03
2022-09-12T21:30:49.790Z,17.04
2022-09-12T21:33:17.417Z,17.04
2022-09-12T21:35:44.452Z,17.02
2022-09-12T21:38:11.766Z,17.04
2022-09-12T21:40:38.320Z,17.11
2022-09-12T21:43:08.121Z,17.13
2022-09-12T21:45:37.089Z,17.14
2022-09-12T21:48:03.769Z,17.18
2022-09-12T21:50:30.580Z,17.15
2022-09-12T21:52:57.157Z,17.16
2022-09-12T21:55:27.121Z,17.14
2022-09-12T21:57:54.778Z,17.08
2022-09-12T22:00:21.495Z,17.02
2022-09-12T22:02:48.961Z,16.97
2022-09-12T22:05:15.740Z,16.92
2022-09-12T22:07:42.349Z,16.88
2022-09-12T22:10:09.467Z,16.81
2022-09-12T22:12:35.954Z,16.80
2022-09-12T22:15:17.458Z,16.84
2022-09-12T22:17:49.060Z,16.92
2022-09-12T22:20:15.581Z,16.89
2022-09-12T22:23:02.385Z,16.84
2022-09-12T22:25:29.157Z,16.79
2022-09-12T22:27:55.857Z,16.76
2022-09-12T22:30:23.511Z,16.70
2022-09-12T22:32:51.098Z,16.67
2022-09-12T22:35:18.467Z,16.61
2022-09-12T22:37:46.449Z,16.56
2022-09-12T22:40:13.290Z,16.56
2022-09-12T22:42:40.458Z,16.58
2022-09-12T22:45:07.804Z,16.62
2022-09-12T22:47:34.334Z,16.67
2022-09-12T22:50:00.900Z,16.71
2022-09-12T22:52:27.493Z,16.79
2022-09-12T22:54:54.024Z,16.89
2022-09-12T22:57:20.562Z,16.94
2022-09-12T22:59:47.133Z,17.01
2022-09-12T23:02:13.628Z,17.08
2022-09-12T23:04:40.198Z,17.04
2022-09-12T23:07:06.898Z,17.05
2022-09-12T23:09:35.367Z,17.03
2022-09-12T23:12:02.679Z,17.04
2022-09-12T23:14:29.236Z,17.00
2022-09-12T23:16:55.761Z,16.96
2022-09-12T23:19:22.263Z,16.93
2022-09-12T23:21:48.839Z,16.87
2022-09-12T23:24:15.473Z,16.88
2022-09-12T23:26:42.011Z,16.83
2022-09-12T23:29:09.137Z,16.81
2022-09-12T23:31:35.922Z,16.73
2022-09-12T23:34:05.817Z,16.70
2022-09-12T23:36:32.908Z,16.69
2022-09-12T23:38:59.477Z,16.62
2022-09-12T23:41:26.067Z,16.61
2022-09-12T23:43:52.788Z,16.63
2022-09-12T23:46:20.149Z,16.63
2022-09-12T23:48:46.892Z,16.64
2022-09-12T23:51:13.921Z,16.60
2022-09-12T23:53:41.267Z,16.51
2022-09-12T23:56:08.521Z,16.42
2022-09-12T23:58:35.090Z,16.39
